Detall de PIREP

Printer-friendly versionPDF version

[2013/02/10 06:40:00]
Flight IATA:CT0001
Pilot Number:041
Company ICAO:CAT
Aircraft Type:A320/E
PAX:93
Departing Airport: LEDA
Destination Airport: LEVC
Alternate Airport:LEBL
Online: VATSIM
Route:DCT OSVAK H110 SEROX A34 SAURA DCT
Flight Level:F170
No Slew and time accel
No pause
Crash detect
Detect pilot in Cockpit between each 30 and 45 minutes
06:40 Zero fuel Weight: 134051 Lbs, Fuel Weight: 8600 Lbs
06:40 VATSIM:LEDA 100600Z 29007KT CAVOK 02/01 Q1016
06:40 VATSIM:LEVC 100600Z 24012KT CAVOK 09/M02 Q1019 NOSIG
06:40 VOICE CATALONIAN
06:48 Parking Brakes off
06:53 Take-off
06:53 Take off Weight: 141734 Lbs
06:53 Wind: 313º @ 007 Knots Heading: 312º
06:53 POS N41º 44´ 05´´ E000º 31´ 31´´
06:53 Gear Up: 185 Knots
06:53 Flaps:3 at 185 Knots
06:53 Flaps:2 at 192 Knots
06:53 Flaps:3 at 199 Knots
06:53 Flaps:1 at 201 Knots
06:53 Flaps:2 at 202 Knots
06:53 Flaps:1 at 203 Knots
06:53 Flaps:0 at 210 Knots
06:59 TOC
06:59 Fuel Weight: 5758 Lb
07:08 Wind:329º@048 Knots Heading: 202º Ground Speed: 400 Knots Altitude 17050 ft
07:08 TOD
07:08 Fuel Weight: 4460 Lb
07:23 Wind:240º@011 Knots Heading: 278º Ground Speed: 197 Knots Altitude 2280 ft
07:24 Flaps:1 at 206 Knots
07:24 Flaps:2 at 197 Knots
07:25 Flaps:3 at 187 Knots
07:25 Flaps:4 at 175 Knots
07:26 Gear Down: 144 Knots
07:26 TouchDown:Rate -181 ft/min Speed: 139 Knots
07:27 VATSIM:LEVC 100700Z 27009KT CAVOK 09/M02 Q1019 NOSIG
07:27 Land
07:27 Wind:243º@011 Knots
07:27 Heading: 274º
07:27 Flight Duration: 00:34
07:27 Landing Weight: 137087 Lbs
07:27 POS N39º 29´ 28´´ W000º 29´ 12´´
07:28 Parking brakes on
07:28 Block to Block Duration: 00:40
07:28 Final Fuel: 2784 Lbls
07:28 Spent Fuel: 5815 Lbls
07:28 Flight Length: 166 NM
07:28 TOD Land Length: 76 NM

Exportar CSV

Powered by Drupal - Modified by Danger4k